Time;durP1;ratioP1;P1;durP2;ratioP2;P2;SDS_P1;SDS_P2;PMS_P1;PMS_P2;Temp;Humidity;BMP_temperature;BMP_pressure;BME280_temperature;BME280_humidity;BME280_pressure;Samples;Min_cycle;Max_cycle;Signal;HPM_P1;HPM_P2
2022/10/30 00:01:21;;;;;;;17.63;5.78;;;;;;;;;;4837770;29;20292;-68
2022/10/30 00:03:48;;;;;;;18.77;5.30;;;;;;;;;;4851656;29;20360;-68
2022/10/30 00:06:16;;;;;;;16.33;5.18;;;;;;;;;;4831854;29;20505;-68
2022/10/30 00:08:45;;;;;;;18.10;4.25;;;;;;;;;;4850269;29;20048;-68
2022/10/30 00:11:13;;;;;;;21.02;4.50;;;;;;;;;;4836468;29;20124;-68
2022/10/30 00:13:43;;;;;;;13.68;4.15;;;;;;;;;;4834578;29;20421;-67
2022/10/30 00:16:09;;;;;;;15.13;3.72;;;;;;;;;;4834225;29;20508;-68
2022/10/30 00:18:36;;;;;;;;;;;;;;;;;;4851500;29;20402;-68
2022/10/30 00:21:19;;;;;;;16.27;4.78;;;;;;;;;;4833659;29;19920;-68
2022/10/30 00:23:48;;;;;;;18.42;5.13;;;;;;;;;;4838652;29;20154;-68
2022/10/30 00:26:16;;;;;;;17.55;4.80;;;;;;;;;;4831103;29;20065;-68
2022/10/30 00:28:43;;;;;;;17.65;5.00;;;;;;;;;;4837668;29;20038;-68
2022/10/30 00:31:12;;;;;;;18.55;4.30;;;;;;;;;;4834745;29;20340;-68
2022/10/30 00:33:41;;;;;;;14.70;4.75;;;;;;;;;;4835395;29;20393;-68
2022/10/30 00:36:10;;;;;;;19.02;4.95;;;;;;;;;;4830409;29;20025;-68
2022/10/30 00:38:38;;;;;;;19.88;5.07;;;;;;;;;;4831573;29;20056;-67
2022/10/30 00:41:12;;;;;;;19.15;4.60;;;;;;;;;;4833861;29;20033;-70
2022/10/30 00:43:41;;;;;;;14.18;4.82;;;;;;;;;;4834939;29;20033;-68
2022/10/30 00:46:30;;;;;;;21.67;5.00;;;;;;;;;;4836543;29;20113;-68
2022/10/30 00:49:09;;;;;;;15.65;4.60;;;;;;;;;;4826963;29;20065;-68
2022/10/30 00:51:42;;;;;;;17.05;4.60;;;;;;;;;;4838129;29;20148;-68
2022/10/30 00:54:09;;;;;;;17.95;4.40;;;;;;;;;;4832441;29;20033;-68
2022/10/30 00:56:36;;;;;;;15.13;4.18;;;;;;;;;;4838763;29;20473;-67
2022/10/30 00:59:07;;;;;;;19.55;5.03;;;;;;;;;;4836687;29;20053;-67
2022/10/30 01:01:37;;;;;;;15.95;5.28;;;;;;;;;;4820288;29;20458;-67
2022/10/30 01:04:05;;;;;;;14.18;4.82;;;;;;;;;;4832051;29;20068;-69
2022/10/30 01:06:33;;;;;;;18.08;4.93;;;;;;;;;;4840117;29;20327;-67
2022/10/30 01:09:01;;;;;;;17.40;4.80;;;;;;;;;;4834967;29;20045;-67
2022/10/30 01:11:30;;;;;;;15.18;4.88;;;;;;;;;;4832161;29;20049;-67
2022/10/30 01:14:00;;;;;;;17.80;4.45;;;;;;;;;;4838238;29;20072;-67
2022/10/30 01:16:43;;;;;;;14.77;4.57;;;;;;;;;;4806111;29;20129;-67
2022/10/30 01:19:28;;;;;;;19.90;4.65;;;;;;;;;;4836480;29;20757;-67
2022/10/30 01:22:03;;;;;;;20.23;5.10;;;;;;;;;;4836056;29;20619;-67
2022/10/30 01:24:49;;;;;;;20.02;4.68;;;;;;;;;;4838311;29;20416;-69
2022/10/30 01:27:29;;;;;;;16.38;4.10;;;;;;;;;;4832443;29;20109;-68
2022/10/30 01:30:14;;;;;;;16.30;4.35;;;;;;;;;;4835470;29;20045;-69
2022/10/30 01:33:00;;;;;;;17.20;4.95;;;;;;;;;;4836257;29;20045;-67
2022/10/30 01:35:49;;;;;;;17.45;4.38;;;;;;;;;;4835762;29;20205;-67
2022/10/30 02:19:26;;;;;;;17.42;5.05;;;;;;;;;;5375797;23;20828;-67
2022/10/30 02:21:52;;;;;;;19.00;4.95;;;;;;;;;;4858078;29;20029;-66
2022/10/30 02:24:18;;;;;;;;;;;;;;;;;;4853146;29;22054;-66
2022/10/30 02:26:45;;;;;;;14.20;4.30;;;;;;;;;;4854933;29;20010;-67
2022/10/30 02:29:12;;;;;;;18.58;4.53;;;;;;;;;;4855378;29;20061;-67
2022/10/30 02:31:38;;;;;;;18.95;4.63;;;;;;;;;;4857770;29;20036;-66
2022/10/30 02:34:04;;;;;;;;;;;;;;;;;;4851865;29;20120;-67
2022/10/30 02:36:30;;;;;;;20.88;4.45;;;;;;;;;;4858685;29;19916;-66
2022/10/30 02:38:56;;;;;;;;;;;;;;;;;;4854587;29;20307;-67
2022/10/30 02:41:23;;;;;;;13.30;4.47;;;;;;;;;;4852159;29;19915;-67
2022/10/30 02:43:50;;;;;;;16.15;4.47;;;;;;;;;;4857879;29;20211;-67
2022/10/30 02:46:17;;;;;;;18.08;4.57;;;;;;;;;;4856287;29;20510;-66
2022/10/30 02:48:43;;;;;;;17.35;4.50;;;;;;;;;;4866744;29;20041;-66
2022/10/30 02:51:10;;;;;;;16.17;4.25;;;;;;;;;;4852765;29;20084;-66
2022/10/30 02:53:36;;;;;;;15.48;4.38;;;;;;;;;;4854927;29;20198;-67
2022/10/30 02:56:02;;;;;;;;;;;;;;;;;;4853881;29;20049;-66
2022/10/30 02:58:29;;;;;;;16.50;4.40;;;;;;;;;;4857447;29;19916;-66
2022/10/30 03:00:55;;;;;;;20.13;5.40;;;;;;;;;;4859298;29;20041;-67
2022/10/30 03:03:21;;;;;;;21.27;4.70;;;;;;;;;;4855487;29;20374;-66
2022/10/30 03:05:47;;;;;;;18.48;4.72;;;;;;;;;;4858051;29;20269;-67
2022/10/30 03:08:13;;;;;;;19.73;4.55;;;;;;;;;;4854779;29;20720;-67
2022/10/30 03:10:39;;;;;;;19.25;4.47;;;;;;;;;;4854943;29;20108;-67
2022/10/30 03:13:05;;;;;;;14.40;4.47;;;;;;;;;;4853765;29;20036;-67
2022/10/30 03:15:31;;;;;;;20.73;5.35;;;;;;;;;;4857804;29;20025;-66
2022/10/30 03:17:57;;;;;;;18.15;4.57;;;;;;;;;;4858594;29;20461;-67
2022/10/30 03:20:24;;;;;;;20.33;4.90;;;;;;;;;;4852443;29;20506;-67
2022/10/30 03:22:50;;;;;;;21.55;4.72;;;;;;;;;;4856495;29;20045;-67
2022/10/30 03:25:22;;;;;;;16.55;4.22;;;;;;;;;;4852852;29;20041;-67
2022/10/30 03:27:48;;;;;;;27.42;5.07;;;;;;;;;;4859428;29;20056;-68
2022/10/30 03:30:14;;;;;;;16.75;4.57;;;;;;;;;;4855449;29;20188;-67
2022/10/30 03:32:40;;;;;;;;;;;;;;;;;;4852424;29;20037;-67
2022/10/30 03:35:06;;;;;;;17.92;4.68;;;;;;;;;;4852477;29;19931;-67
2022/10/30 03:37:32;;;;;;;;;;;;;;;;;;4856784;29;20064;-67
2022/10/30 03:39:58;;;;;;;21.35;4.30;;;;;;;;;;4855976;29;20431;-67
2022/10/30 03:42:25;;;;;;;19.17;4.55;;;;;;;;;;4855322;29;20036;-67
2022/10/30 03:44:51;;;;;;;21.75;4.70;;;;;;;;;;4857802;29;20064;-67
2022/10/30 03:47:17;;;;;;;20.70;4.55;;;;;;;;;;4849719;29;20047;-67
2022/10/30 03:49:43;;;;;;;22.00;4.45;;;;;;;;;;4856315;29;20129;-67
2022/10/30 03:52:09;;;;;;;13.93;4.30;;;;;;;;;;4852107;29;20045;-67
2022/10/30 03:54:35;;;;;;;20.08;4.90;;;;;;;;;;4855647;29;20033;-67
2022/10/30 03:57:01;;;;;;;21.75;4.60;;;;;;;;;;4854148;29;20081;-67
2022/10/30 03:59:28;;;;;;;22.52;4.57;;;;;;;;;;4857624;29;20219;-67
2022/10/30 04:01:54;;;;;;;21.58;5.32;;;;;;;;;;4854373;29;20543;-67
2022/10/30 04:04:20;;;;;;;20.73;4.80;;;;;;;;;;4851424;29;20253;-66
2022/10/30 04:06:47;;;;;;;21.83;5.00;;;;;;;;;;4852321;29;20065;-67
2022/10/30 04:09:13;;;;;;;19.10;4.57;;;;;;;;;;4853923;29;20087;-67
2022/10/30 04:11:39;;;;;;;22.58;4.70;;;;;;;;;;4856543;29;20373;-67
2022/10/30 04:14:05;;;;;;;14.93;4.28;;;;;;;;;;4851142;29;20136;-67
2022/10/30 04:16:31;;;;;;;;;;;;;;;;;;4856594;29;20025;-66
2022/10/30 04:18:57;;;;;;;18.02;4.63;;;;;;;;;;4854683;29;20283;-66
2022/10/30 04:21:23;;;;;;;21.83;4.88;;;;;;;;;;4850546;29;20048;-67
2022/10/30 04:23:49;;;;;;;15.48;4.47;;;;;;;;;;4853845;29;20033;-67
2022/10/30 04:26:16;;;;;;;20.15;4.38;;;;;;;;;;4853765;29;20033;-66
2022/10/30 04:28:42;;;;;;;15.15;4.10;;;;;;;;;;4855237;29;20029;-67
2022/10/30 04:31:08;;;;;;;21.42;4.88;;;;;;;;;;4855186;29;20282;-67
2022/10/30 04:33:34;;;;;;;16.90;4.03;;;;;;;;;;4854385;29;20503;-67
2022/10/30 04:36:00;;;;;;;18.27;4.50;;;;;;;;;;4850717;29;20140;-67
2022/10/30 04:38:26;;;;;;;;;;;;;;;;;;4854189;29;20389;-67
2022/10/30 04:40:52;;;;;;;14.73;3.80;;;;;;;;;;4855600;29;19915;-67
2022/10/30 04:43:18;;;;;;;15.23;4.00;;;;;;;;;;4851116;29;20029;-67
2022/10/30 04:45:44;;;;;;;15.45;4.47;;;;;;;;;;4857677;29;20044;-67
2022/10/30 04:48:13;;;;;;;14.35;4.13;;;;;;;;;;4853213;29;20033;-66
2022/10/30 04:50:39;;;;;;;16.00;4.15;;;;;;;;;;4856373;29;20033;-66
2022/10/30 04:53:05;;;;;;;;;;;;;;;;;;4857978;29;20056;-66
2022/10/30 04:55:32;;;;;;;18.25;4.65;;;;;;;;;;4855527;29;20413;-66
2022/10/30 04:58:01;;;;;;;12.60;3.90;;;;;;;;;;4858747;29;20036;-66
2022/10/30 05:00:28;;;;;;;17.40;4.18;;;;;;;;;;4856353;29;20040;-66
2022/10/30 05:02:54;;;;;;;15.40;4.40;;;;;;;;;;4857749;29;20033;-67
2022/10/30 05:05:20;;;;;;;16.73;4.55;;;;;;;;;;4856986;29;20041;-66
2022/10/30 05:07:46;;;;;;;;;;;;;;;;;;4860397;29;20069;-66
2022/10/30 05:10:17;;;;;;;17.60;4.50;;;;;;;;;;4859478;29;20303;-67
2022/10/30 05:12:44;;;;;;;21.50;4.38;;;;;;;;;;4859718;29;20029;-67
2022/10/30 05:15:10;;;;;;;18.10;4.60;;;;;;;;;;4854061;29;20129;-66
2022/10/30 05:17:36;;;;;;;19.60;4.60;;;;;;;;;;4869689;29;20377;-66
2022/10/30 05:20:02;;;;;;;21.45;4.63;;;;;;;;;;4856170;29;20053;-67
2022/10/30 05:22:28;;;;;;;;;;;;;;;;;;4859200;29;20037;-67
2022/10/30 05:24:54;;;;;;;16.13;4.07;;;;;;;;;;4854863;29;19916;-66
2022/10/30 05:27:20;;;;;;;17.73;4.40;;;;;;;;;;4854826;29;20440;-66
2022/10/30 05:29:46;;;;;;;17.30;4.25;;;;;;;;;;4859619;29;20271;-66
2022/10/30 05:32:13;;;;;;;16.67;4.57;;;;;;;;;;4856013;29;20047;-66
2022/10/30 05:34:39;;;;;;;18.52;4.43;;;;;;;;;;4854916;29;20432;-66
2022/10/30 05:37:05;;;;;;;18.73;4.38;;;;;;;;;;4855230;29;20051;-67
2022/10/30 05:39:31;;;;;;;19.98;4.20;;;;;;;;;;4856613;29;20033;-66
2022/10/30 05:41:57;;;;;;;16.25;4.07;;;;;;;;;;4855398;29;20046;-67
2022/10/30 05:44:23;;;;;;;13.85;3.97;;;;;;;;;;4855214;29;20058;-66
2022/10/30 05:46:49;;;;;;;18.60;3.90;;;;;;;;;;4858410;29;20033;-66
2022/10/30 05:49:16;;;;;;;;;;;;;;;;;;4855650;29;20052;-66
2022/10/30 05:51:43;;;;;;;14.65;4.03;;;;;;;;;;4858108;29;19927;-67
2022/10/30 05:54:09;;;;;;;;;;;;;;;;;;4853595;29;20037;-66
2022/10/30 05:56:35;;;;;;;18.15;4.07;;;;;;;;;;4856472;29;19938;-66
2022/10/30 05:59:01;;;;;;;16.50;4.10;;;;;;;;;;4851640;29;20048;-66
2022/10/30 06:01:27;;;;;;;15.10;3.83;;;;;;;;;;4855782;29;20274;-68
2022/10/30 06:03:53;;;;;;;19.00;4.82;;;;;;;;;;4857023;29;20119;-68
2022/10/30 06:06:19;;;;;;;16.02;4.25;;;;;;;;;;4855876;29;21078;-68
2022/10/30 06:08:45;;;;;;;;;;;;;;;;;;4857734;29;20446;-68
2022/10/30 06:11:11;;;;;;;19.70;4.95;;;;;;;;;;4854271;29;20041;-68
2022/10/30 06:13:39;;;;;;;19.58;4.88;;;;;;;;;;4856481;29;20064;-68
2022/10/30 06:16:05;;;;;;;16.90;4.60;;;;;;;;;;4853331;29;20032;-68
2022/10/30 06:18:31;;;;;;;17.20;4.40;;;;;;;;;;4859578;29;20073;-68
2022/10/30 06:20:57;;;;;;;14.32;4.20;;;;;;;;;;4857244;29;20051;-68
2022/10/30 06:23:23;;;;;;;15.63;3.95;;;;;;;;;;4856163;29;20066;-68
2022/10/30 06:25:49;;;;;;;16.73;4.60;;;;;;;;;;4856946;29;20033;-68
2022/10/30 06:28:16;;;;;;;23.30;4.72;;;;;;;;;;4855334;29;20033;-68
2022/10/30 06:30:42;;;;;;;17.08;4.10;;;;;;;;;;4856879;29;20140;-68
2022/10/30 06:33:09;;;;;;;20.42;4.10;;;;;;;;;;4855131;29;20076;-68
2022/10/30 06:35:35;;;;;;;15.60;4.45;;;;;;;;;;4856425;29;20029;-68
2022/10/30 06:38:01;;;;;;;;;;;;;;;;;;4853541;29;20064;-68
2022/10/30 06:40:31;;;;;;;18.15;4.65;;;;;;;;;;4856766;29;20043;-68
2022/10/30 06:42:57;;;;;;;21.00;4.45;;;;;;;;;;4856502;29;20036;-67
2022/10/30 06:45:23;;;;;;;16.92;4.25;;;;;;;;;;4857058;29;20132;-67
2022/10/30 06:47:50;;;;;;;21.15;4.85;;;;;;;;;;4857257;29;20044;-66
2022/10/30 06:50:17;;;;;;;19.85;4.40;;;;;;;;;;4853253;29;20041;-66
2022/10/30 06:52:44;;;;;;;23.30;5.57;;;;;;;;;;4855250;29;20037;-66
2022/10/30 06:55:10;;;;;;;20.02;5.38;;;;;;;;;;4851372;29;20116;-67
2022/10/30 06:57:37;;;;;;;16.90;4.53;;;;;;;;;;4855924;29;20018;-67
2022/10/30 07:00:04;;;;;;;14.85;4.47;;;;;;;;;;4853371;29;20049;-68
2022/10/30 07:02:30;;;;;;;21.77;4.90;;;;;;;;;;4859828;29;20107;-67
2022/10/30 07:04:56;;;;;;;;;;;;;;;;;;4858798;29;20045;-67
2022/10/30 07:07:22;;;;;;;22.35;4.47;;;;;;;;;;4853045;29;19922;-67
2022/10/30 07:09:48;;;;;;;;;;;;;;;;;;4859156;29;20064;-68
2022/10/30 07:12:14;;;;;;;16.83;4.15;;;;;;;;;;4854271;29;20815;-68
2022/10/30 07:14:41;;;;;;;22.23;4.80;;;;;;;;;;4858159;29;20092;-67
2022/10/30 07:17:07;;;;;;;18.38;4.28;;;;;;;;;;4855021;29;20136;-67
2022/10/30 07:19:33;;;;;;;15.57;4.20;;;;;;;;;;4851650;29;20639;-68
2022/10/30 07:21:59;;;;;;;;;;;;;;;;;;4857431;29;20422;-68
2022/10/30 07:24:25;;;;;;;21.30;4.32;;;;;;;;;;4860483;29;19923;-67
2022/10/30 07:26:52;;;;;;;14.75;4.00;;;;;;;;;;4856075;29;20789;-68
2022/10/30 07:29:18;;;;;;;20.48;4.40;;;;;;;;;;4853867;29;20071;-68
2022/10/30 07:31:44;;;;;;;;;;;;;;;;;;4858403;29;20037;-68
2022/10/30 07:34:10;;;;;;;19.13;4.50;;;;;;;;;;4852359;29;19940;-67
2022/10/30 07:36:36;;;;;;;;;;;;;;;;;;4855226;29;20028;-67
2022/10/30 07:39:02;;;;;;;14.02;4.10;;;;;;;;;;4850930;29;19916;-66
2022/10/30 07:41:28;;;;;;;;;;;;;;;;;;4856350;29;20037;-67
2022/10/30 07:43:54;;;;;;;19.52;5.45;;;;;;;;;;4852818;29;20473;-68
2022/10/30 07:46:23;;;;;;;20.90;5.85;;;;;;;;;;4848530;29;20142;-67
2022/10/30 07:48:49;;;;;;;16.23;4.82;;;;;;;;;;4852177;29;20041;-67
2022/10/30 07:51:15;;;;;;;;;;;;;;;;;;4845324;29;20037;-68
2022/10/30 07:53:41;;;;;;;19.05;6.18;;;;;;;;;;4862404;29;20292;-67
2022/10/30 07:56:07;;;;;;;17.48;5.80;;;;;;;;;;4846583;29;20441;-67
2022/10/30 07:58:33;;;;;;;16.55;5.97;;;;;;;;;;4853934;29;20041;-67
2022/10/30 08:01:02;;;;;;;27.73;6.68;;;;;;;;;;4849129;29;20033;-68
2022/10/30 08:03:28;;;;;;;23.10;6.18;;;;;;;;;;4853324;29;20627;-68
2022/10/30 08:05:54;;;;;;;;;;;;;;;;;;4850764;29;20041;-68
2022/10/30 08:08:23;;;;;;;19.30;6.13;;;;;;;;;;4847746;29;19920;-68
2022/10/30 08:10:49;;;;;;;20.65;5.40;;;;;;;;;;4852422;29;20485;-68
2022/10/30 08:13:17;;;;;;;;;;;;;;;;;;4844315;29;20121;-67
2022/10/30 08:15:46;;;;;;;14.63;5.18;;;;;;;;;;4861833;29;19931;-68
2022/10/30 08:18:12;;;;;;;21.23;5.68;;;;;;;;;;4846996;29;20153;-68
2022/10/30 08:20:38;;;;;;;17.85;5.25;;;;;;;;;;4852932;29;20045;-68
2022/10/30 08:23:04;;;;;;;20.90;6.53;;;;;;;;;;4854241;29;20045;-68
2022/10/30 08:25:31;;;;;;;26.33;6.20;;;;;;;;;;4854110;29;20189;-68
2022/10/30 08:27:58;;;;;;;19.10;5.97;;;;;;;;;;4855071;29;20461;-68
2022/10/30 08:30:26;;;;;;;22.75;6.53;;;;;;;;;;4852557;29;20036;-68
2022/10/30 08:32:52;;;;;;;21.67;5.50;;;;;;;;;;4853345;29;20568;-68
2022/10/30 08:35:18;;;;;;;20.75;6.05;;;;;;;;;;4842322;29;20051;-68
2022/10/30 08:37:44;;;;;;;29.27;6.32;;;;;;;;;;4845529;29;20656;-68
2022/10/30 08:40:10;;;;;;;25.23;5.63;;;;;;;;;;4843790;29;20072;-67
2022/10/30 08:42:37;;;;;;;26.33;6.25;;;;;;;;;;4850115;29;20049;-67
2022/10/30 08:45:04;;;;;;;24.80;6.15;;;;;;;;;;4839674;29;20036;-68
2022/10/30 08:47:30;;;;;;;19.15;6.18;;;;;;;;;;4849820;29;20065;-67
2022/10/30 08:49:56;;;;;;;21.30;6.03;;;;;;;;;;4843125;29;20077;-67
2022/10/30 08:52:22;;;;;;;19.60;6.53;;;;;;;;;;4844626;29;20040;-68
2022/10/30 08:54:48;;;;;;;19.08;6.50;;;;;;;;;;4848111;29;20403;-68
2022/10/30 08:57:14;;;;;;;21.38;5.90;;;;;;;;;;4849134;29;20037;-69
2022/10/30 08:59:41;;;;;;;26.73;5.85;;;;;;;;;;4845309;29;20029;-68
2022/10/30 09:02:07;;;;;;;22.42;6.32;;;;;;;;;;4847669;29;20045;-68
2022/10/30 09:04:33;;;;;;;19.73;6.38;;;;;;;;;;4849098;29;20029;-70
2022/10/30 09:07:00;;;;;;;20.58;5.95;;;;;;;;;;4846188;29;20060;-68
2022/10/30 09:09:27;;;;;;;27.00;6.90;;;;;;;;;;4845621;29;20145;-68
2022/10/30 09:11:53;;;;;;;20.20;6.35;;;;;;;;;;4849382;29;20560;-68
2022/10/30 09:14:19;;;;;;;23.40;6.38;;;;;;;;;;4841227;29;20821;-68
2022/10/30 09:16:45;;;;;;;19.20;5.85;;;;;;;;;;4847267;29;20029;-68
2022/10/30 09:19:11;;;;;;;20.15;6.57;;;;;;;;;;4845772;29;20512;-68
2022/10/30 09:21:37;;;;;;;19.25;6.70;;;;;;;;;;4847780;29;20089;-69
2022/10/30 09:24:04;;;;;;;19.67;6.07;;;;;;;;;;4849868;29;20160;-68
2022/10/30 09:26:30;;;;;;;19.48;5.95;;;;;;;;;;4846586;29;20033;-68
2022/10/30 09:28:56;;;;;;;21.30;5.80;;;;;;;;;;4847536;29;20293;-69
2022/10/30 09:31:22;;;;;;;20.98;5.53;;;;;;;;;;4847828;29;20033;-68
2022/10/30 09:33:49;;;;;;;22.00;6.32;;;;;;;;;;4851031;29;20039;-68
2022/10/30 09:36:15;;;;;;;22.90;6.00;;;;;;;;;;4849662;29;20033;-69
2022/10/30 09:38:42;;;;;;;20.52;5.53;;;;;;;;;;4849731;29;20126;-68
2022/10/30 09:41:10;;;;;;;19.77;6.07;;;;;;;;;;4847732;29;20089;-68
2022/10/30 09:43:56;;;;;;;20.83;6.45;;;;;;;;;;4854928;29;20077;-68
2022/10/30 09:46:35;;;;;;;18.67;5.88;;;;;;;;;;4853222;29;20036;-68
2022/10/30 09:49:12;;;;;;;19.00;5.35;;;;;;;;;;4851304;29;20068;-68
2022/10/30 09:51:38;;;;;;;21.88;6.10;;;;;;;;;;4848528;29;20029;-69
2022/10/30 09:54:23;;;;;;;19.33;5.82;;;;;;;;;;4848924;29;20152;-69
2022/10/30 09:56:51;;;;;;;24.60;6.32;;;;;;;;;;4853715;29;20072;-68
2022/10/30 09:59:17;;;;;;;16.58;5.50;;;;;;;;;;4846593;29;20033;-68
2022/10/30 10:01:49;;;;;;;24.25;5.93;;;;;;;;;;4854202;29;20556;-68
2022/10/30 10:04:16;;;;;;;20.92;5.53;;;;;;;;;;4851847;29;20042;-69
2022/10/30 10:06:43;;;;;;;18.52;6.55;;;;;;;;;;4847187;29;20075;-68
2022/10/30 10:09:17;;;;;;;27.38;8.30;;;;;;;;;;4854054;29;20847;-68
2022/10/30 10:11:45;;;;;;;17.75;6.38;;;;;;;;;;4852648;29;20025;-68
2022/10/30 10:14:14;;;;;;;23.35;6.22;;;;;;;;;;4851866;29;20557;-69
2022/10/30 10:16:42;;;;;;;18.92;5.63;;;;;;;;;;4855743;29;20513;-68
2022/10/30 10:19:22;;;;;;;20.15;5.65;;;;;;;;;;4854882;29;20049;-69
2022/10/30 10:21:48;;;;;;;25.42;6.28;;;;;;;;;;4856459;29;20658;-69
2022/10/30 10:24:18;;;;;;;16.23;5.45;;;;;;;;;;4853025;29;20033;-68
2022/10/30 10:26:48;;;;;;;19.50;5.43;;;;;;;;;;4855759;29;20036;-69
2022/10/30 10:29:19;;;;;;;18.05;5.68;;;;;;;;;;4854966;29;20738;-69
2022/10/30 10:31:45;;;;;;;18.35;4.88;;;;;;;;;;4857211;29;20037;-70
2022/10/30 10:34:34;;;;;;;18.98;5.00;;;;;;;;;;4853648;29;20029;-70
2022/10/30 10:37:33;;;;;;;20.10;5.07;;;;;;;;;;4813672;29;20410;-68
2022/10/30 10:40:08;;;;;;;14.52;4.75;;;;;;;;;;4740564;30;20579;-69
2022/10/30 10:42:50;;;;;;;20.25;5.03;;;;;;;;;;4742214;30;20056;-69
2022/10/30 10:45:16;;;;;;;19.17;5.47;;;;;;;;;;4744962;30;20088;-68
2022/10/30 10:47:48;;;;;;;16.40;4.75;;;;;;;;;;4743363;30;20060;-69
2022/10/30 10:50:24;;;;;;;20.55;5.00;;;;;;;;;;4745671;30;20047;-69
2022/10/30 10:52:50;;;;;;;20.27;5.13;;;;;;;;;;4744216;30;20054;-70
2022/10/30 10:55:18;;;;;;;20.45;4.95;;;;;;;;;;4743297;30;20051;-69
2022/10/30 10:57:45;;;;;;;17.27;4.80;;;;;;;;;;4745043;30;20041;-69
2022/10/30 11:00:18;;;;;;;18.17;4.90;;;;;;;;;;4743354;30;20043;-69
2022/10/30 11:03:04;;;;;;;16.73;4.47;;;;;;;;;;4747160;30;20055;-70
2022/10/30 11:05:31;;;;;;;18.67;4.95;;;;;;;;;;4746208;30;20075;-70
2022/10/30 11:07:59;;;;;;;17.48;4.72;;;;;;;;;;4745408;30;20571;-70
2022/10/30 11:10:25;;;;;;;21.27;5.40;;;;;;;;;;4742062;30;20063;-67
2022/10/30 11:12:52;;;;;;;17.65;5.03;;;;;;;;;;4746185;30;20483;-69
2022/10/30 11:15:18;;;;;;;14.38;4.38;;;;;;;;;;4804956;29;20049;-69
2022/10/30 11:18:03;;;;;;;20.63;4.93;;;;;;;;;;4857040;29;20402;-69
2022/10/30 11:20:42;;;;;;;22.80;5.30;;;;;;;;;;4855290;29;20057;-69
2022/10/30 11:23:26;;;;;;;21.13;5.45;;;;;;;;;;4853308;29;20212;-69
2022/10/30 11:25:53;;;;;;;19.47;5.00;;;;;;;;;;4856894;29;20481;-68
2022/10/30 11:28:31;;;;;;;15.00;4.68;;;;;;;;;;4854781;29;20268;-69
2022/10/30 11:31:16;;;;;;;16.98;5.10;;;;;;;;;;4856878;29;20496;-69
2022/10/30 11:33:42;;;;;;;17.00;5.18;;;;;;;;;;4857030;29;20052;-69
2022/10/30 11:36:09;;;;;;;14.35;4.30;;;;;;;;;;4851158;29;20675;-69
2022/10/30 11:48:58;;;;;;;19.95;5.13;;;;;;;;;;5174060;23;20417;-70
2022/10/30 11:51:36;;;;;;;14.35;4.07;;;;;;;;;;4836109;29;20257;-69
2022/10/30 11:54:03;;;;;;;17.67;4.50;;;;;;;;;;4823542;29;20463;-68
2022/10/30 11:56:30;;;;;;;18.02;4.93;;;;;;;;;;4833208;29;20042;-69
2022/10/30 11:59:01;;;;;;;17.27;4.30;;;;;;;;;;4833451;29;20038;-71
2022/10/30 12:01:37;;;;;;;17.73;4.35;;;;;;;;;;4821089;29;20485;-68
2022/10/30 12:04:23;;;;;;;13.73;4.13;;;;;;;;;;4816240;29;20041;-69
2022/10/30 12:07:09;;;;;;;17.45;4.53;;;;;;;;;;4818571;29;20634;-70
2022/10/30 12:09:46;;;;;;;17.00;4.57;;;;;;;;;;4819265;29;20105;-69
2022/10/30 12:12:30;;;;;;;14.52;4.25;;;;;;;;;;4822650;29;20124;-69
2022/10/30 12:15:08;;;;;;;18.20;4.53;;;;;;;;;;4827295;29;20048;-69
2022/10/30 12:17:34;;;;;;;15.55;4.32;;;;;;;;;;5207453;23;20065;-69
2022/10/30 12:20:02;;;;;;;15.30;4.70;;;;;;;;;;4853049;29;20033;-69
2022/10/30 12:22:34;;;;;;;16.42;4.38;;;;;;;;;;4858033;29;20037;-69
2022/10/30 12:25:03;;;;;;;16.73;4.40;;;;;;;;;;4855035;29;20340;-69
2022/10/30 12:27:31;;;;;;;16.95;4.70;;;;;;;;;;4856519;29;20444;-69
2022/10/30 12:30:07;;;;;;;18.10;4.78;;;;;;;;;;4856126;29;20037;-70
2022/10/30 12:32:40;;;;;;;15.73;4.47;;;;;;;;;;4856506;29;20105;-71
2022/10/30 12:35:09;;;;;;;20.55;4.53;;;;;;;;;;4851692;29;20048;-70
2022/10/30 12:37:42;;;;;;;12.98;3.95;;;;;;;;;;4854407;29;20394;-70
2022/10/30 12:40:14;;;;;;;15.95;4.45;;;;;;;;;;4845008;29;20557;-68
2022/10/30 12:42:48;;;;;;;13.98;3.72;;;;;;;;;;4853240;29;20083;-68
2022/10/30 12:45:14;;;;;;;;;;;;;;;;;;4853669;29;20668;-69
2022/10/30 12:47:41;;;;;;;15.23;4.55;;;;;;;;;;4856496;29;19920;-68
2022/10/30 12:50:13;;;;;;;16.17;4.57;;;;;;;;;;4852215;29;20040;-70
2022/10/30 12:52:39;;;;;;;17.05;5.00;;;;;;;;;;4853533;29;20068;-69
2022/10/30 12:55:15;;;;;;;15.25;4.63;;;;;;;;;;4834798;29;20323;-68
2022/10/30 12:57:47;;;;;;;16.48;5.13;;;;;;;;;;4832878;29;20212;-68
2022/10/30 13:00:15;;;;;;;17.08;4.50;;;;;;;;;;4832867;29;20554;-69
2022/10/30 13:02:50;;;;;;;21.92;4.72;;;;;;;;;;4838048;29;20105;-69
2022/10/30 13:05:24;;;;;;;15.93;4.53;;;;;;;;;;4833113;29;20439;-69
2022/10/30 13:08:09;;;;;;;16.70;4.93;;;;;;;;;;4842570;29;20041;-69
2022/10/30 13:10:41;;;;;;;14.70;4.32;;;;;;;;;;4841671;29;20401;-69
2022/10/30 13:13:23;;;;;;;17.98;4.80;;;;;;;;;;4838773;29;20048;-69
2022/10/30 13:15:50;;;;;;;15.90;4.60;;;;;;;;;;4838260;29;20112;-69
2022/10/30 13:18:18;;;;;;;19.45;5.05;;;;;;;;;;4840712;29;20544;-70
2022/10/30 13:20:48;;;;;;;19.90;4.82;;;;;;;;;;4838805;29;20030;-70
2022/10/30 13:23:23;;;;;;;16.30;4.68;;;;;;;;;;4837344;29;20101;-68
2022/10/30 13:26:01;;;;;;;13.18;4.32;;;;;;;;;;4842753;29;20048;-68
2022/10/30 13:28:51;;;;;;;19.92;4.90;;;;;;;;;;4837606;29;20045;-69
2022/10/30 13:31:22;;;;;;;16.70;4.32;;;;;;;;;;4830181;29;20045;-69
2022/10/30 13:34:27;;;;;;;15.00;4.32;;;;;;;;;;4857611;29;20038;-69
2022/10/30 13:37:12;;;;;;;14.97;4.00;;;;;;;;;;4786542;29;20602;-69
2022/10/30 13:39:38;;;;;;;19.45;6.93;;;;;;;;;;4795511;29;20039;-70
2022/10/30 13:42:10;;;;;;;17.02;6.20;;;;;;;;;;4782306;29;20905;-70
2022/10/30 13:44:37;;;;;;;16.33;5.10;;;;;;;;;;4783724;29;20045;-69
2022/10/30 13:47:14;;;;;;;14.68;4.60;;;;;;;;;;4799627;29;20129;-68
2022/10/30 13:50:04;;;;;;;18.25;5.00;;;;;;;;;;4783079;29;20416;-69
2022/10/30 13:52:32;;;;;;;16.98;4.55;;;;;;;;;;4796845;29;20866;-70
2022/10/30 13:55:19;;;;;;;16.33;4.47;;;;;;;;;;4803657;29;20125;-68
2022/10/30 13:58:05;;;;;;;16.40;4.30;;;;;;;;;;4797776;29;20039;-69
2022/10/30 14:00:53;;;;;;;16.13;4.35;;;;;;;;;;4782364;29;20393;-68
2022/10/30 14:03:29;;;;;;;17.63;4.63;;;;;;;;;;4778873;29;21515;-69
2022/10/30 14:05:55;;;;;;;18.17;4.82;;;;;;;;;;4797302;29;20365;-68
2022/10/30 14:08:35;;;;;;;15.77;4.97;;;;;;;;;;4829638;29;20141;-69
2022/10/30 14:11:04;;;;;;;18.00;5.13;;;;;;;;;;4834249;29;20045;-70
2022/10/30 14:13:45;;;;;;;17.70;4.95;;;;;;;;;;4836259;29;20055;-69
2022/10/30 14:16:30;;;;;;;16.80;5.13;;;;;;;;;;4831231;29;20025;-69
2022/10/30 14:19:01;;;;;;;20.52;4.57;;;;;;;;;;4834607;29;20714;-71
2022/10/30 14:21:44;;;;;;;15.02;4.93;;;;;;;;;;4837391;29;20268;-69
2022/10/30 14:24:18;;;;;;;20.52;5.40;;;;;;;;;;4837562;29;20063;-69
2022/10/30 14:26:51;;;;;;;15.88;4.50;;;;;;;;;;4836576;29;20517;-70
2022/10/30 14:29:33;;;;;;;15.27;5.15;;;;;;;;;;4835918;29;20041;-69
2022/10/30 14:32:19;;;;;;;17.55;5.40;;;;;;;;;;4838747;29;20580;-70
2022/10/30 14:34:52;;;;;;;19.83;5.50;;;;;;;;;;4834784;29;20038;-68
2022/10/30 14:37:27;;;;;;;16.27;6.07;;;;;;;;;;4833589;29;20038;-69
2022/10/30 14:39:55;;;;;;;15.02;5.10;;;;;;;;;;4833430;29;20271;-69
2022/10/30 14:42:24;;;;;;;18.95;5.15;;;;;;;;;;4834439;29;20781;-70
2022/10/30 14:45:02;;;;;;;14.50;4.90;;;;;;;;;;4840276;29;20679;-70
2022/10/30 14:47:44;;;;;;;17.20;5.13;;;;;;;;;;4837980;29;20128;-70
2022/10/30 14:50:26;;;;;;;20.15;5.65;;;;;;;;;;4849066;29;20419;-69
2022/10/30 14:52:52;;;;;;;15.13;4.57;;;;;;;;;;4835514;29;20117;-70
2022/10/30 14:55:37;;;;;;;15.07;4.70;;;;;;;;;;4833924;29;20038;-70
2022/10/30 14:58:03;;;;;;;15.55;4.57;;;;;;;;;;4833765;29;20496;-69
2022/10/30 15:00:37;;;;;;;16.38;4.40;;;;;;;;;;4832546;29;20037;-69
2022/10/30 15:03:13;;;;;;;15.40;4.83;;;;;;;;;;4826028;29;20037;-70
2022/10/30 15:05:44;;;;;;;16.67;4.80;;;;;;;;;;4833423;29;20063;-69
2022/10/30 15:08:28;;;;;;;15.95;4.75;;;;;;;;;;4829423;29;20503;-70
2022/10/30 15:11:06;;;;;;;20.27;5.13;;;;;;;;;;4845784;29;20060;-69
2022/10/30 15:13:32;;;;;;;15.60;4.68;;;;;;;;;;4844460;29;20044;-70
2022/10/30 15:16:01;;;;;;;20.52;5.68;;;;;;;;;;4831710;29;20072;-71
2022/10/30 15:18:29;;;;;;;22.40;5.53;;;;;;;;;;4832119;29;20049;-70
2022/10/30 15:20:57;;;;;;;17.27;5.10;;;;;;;;;;4832131;29;20041;-68
2022/10/30 15:23:49;;;;;;;18.95;5.07;;;;;;;;;;4830913;29;20035;-69
2022/10/30 15:26:24;;;;;;;17.30;4.70;;;;;;;;;;4824574;29;20053;-68
2022/10/30 15:28:51;;;;;;;13.02;4.32;;;;;;;;;;4833036;29;20081;-68
2022/10/30 15:31:18;;;;;;;17.05;5.00;;;;;;;;;;4831189;29;20040;-70
2022/10/30 15:33:44;;;;;;;21.33;5.20;;;;;;;;;;4835796;29;20147;-70
2022/10/30 15:36:17;;;;;;;16.63;5.22;;;;;;;;;;4828869;29;20144;-69
2022/10/30 16:27:06;;;;;;;19.88;7.00;;;;;;;;;;5886357;23;20122;31
2022/10/30 16:29:33;;;;;;;25.45;6.95;;;;;;;;;;4792207;29;20054;-69
2022/10/30 16:32:02;;;;;;;24.58;6.22;;;;;;;;;;4796505;29;20494;-69
2022/10/30 16:34:34;;;;;;;21.05;6.38;;;;;;;;;;4799466;29;20368;-69